M I D A S
Marine Information and Data Acquisition System
Tripno 1678 of the Zeeleeuw from 2009-04-21 08:05:11 to 2009-04-21 13:59:22
Back to CruiseResearch ActivitiesStationsMapUnderway DataData graphs

EquipmentUnitsComment
TimeDGPSUTC
LatitudeDGPSDM.mWGS84
LongitudeDGPSDM.mWGS84
HeadingGyrodeg 
SOGDGPSknotsSpeed over ground
COGDGPSdegCourse over ground
DepthEcho soundermeters200 kHz
Missing or incorrect values are displayed as -999
Navigation data collected by the RV Zeeleeuw from 2009-04-21 07:56:58 to 2009-04-21 14:07:10
                                                                                    Next 1000 lines
Time Latitude Longitude Heading SOG COG Depth
2009-04-21 07:57:07 51°13.662 2°55.957 113.3 0.8 291 6.9
2009-04-21 07:57:13 51°13.663 2°55.954 113.1 1.1 296 -999
2009-04-21 07:57:18 51°13.664 2°55.952 113.1 1.4 294 -999
2009-04-21 07:57:24 51°13.665 2°55.947 113.1 1.7 297 -999
2009-04-21 07:57:29 51°13.666 2°55.944 113.2 2 294 7
2009-04-21 07:57:34 51°13.667 2°55.939 113.2 2.1 295 -999
2009-04-21 07:57:39 51°13.668 2°55.935 113.1 2.3 293 -999
2009-04-21 07:57:44 51°13.67 2°55.93 112.6 2.4 294 -999
2009-04-21 07:57:49 51°13.671 2°55.925 112.1 2.6 292 -999
2009-04-21 07:57:54 51°13.672 2°55.919 111.5 2.7 292 -999
2009-04-21 07:57:59 51°13.674 2°55.914 110.8 2.8 291 -999
2009-04-21 07:58:04 51°13.675 2°55.908 110.1 2.8 290 -999
2009-04-21 07:58:09 51°13.677 2°55.902 109.3 2.9 289 -999
2009-04-21 07:58:14 51°13.679 2°55.895 108.5 3 288 -999
2009-04-21 07:58:19 51°13.68 2°55.889 108.1 3 288 -999
2009-04-21 07:58:24 51°13.681 2°55.882 107.8 3.1 287 -999
2009-04-21 07:58:29 51°13.683 2°55.875 107.6 3.1 287 -999
2009-04-21 07:58:34 51°13.684 2°55.868 107.6 3.3 286 -999
2009-04-21 07:58:39 51°13.684 2°55.861 107.4 3.5 286 -999
2009-04-21 07:58:44 51°13.685 2°55.854 106.8 3.6 286 -999
2009-04-21 07:58:49 51°13.686 2°55.847 106.3 3.6 287 -999
2009-04-21 07:58:54 51°13.687 2°55.84 106 3.6 285 -999
2009-04-21 07:58:59 51°13.689 2°55.832 105.7 3.6 286 -999
2009-04-21 07:59:04 51°13.69 2°55.824 105.2 3.4 285 -999
2009-04-21 07:59:09 51°13.692 2°55.817 104.8 3.1 285 -999
2009-04-21 07:59:14 51°13.693 2°55.811 104.4 2.7 287 -999
2009-04-21 07:59:19 51°13.694 2°55.806 104.6 2.3 285 -999
2009-04-21 07:59:24 51°13.695 2°55.803 105.3 1.4 289 -999
2009-04-21 07:59:29 51°13.695 2°55.801 106.7 0.6 289 -999
2009-04-21 07:59:34 51°13.695 2°55.8 110.2 0.5 286 4.6
2009-04-21 07:59:39 51°13.695 2°55.799 112.7 0.6 285 11.2
2009-04-21 07:59:43 51°13.694 2°55.799 115.6 0.9 294 11.3
2009-04-21 07:59:49 51°13.694 2°55.796 117.8 1.3 296 11.7
2009-04-21 07:59:54 51°13.696 2°55.792 118.9 1.9 297 12.4
2009-04-21 07:59:58 51°13.697 2°55.789 119.6 2.3 299 12.3
2009-04-21 08:00:03 51°13.699 2°55.783 120.9 2.6 299 12.8
2009-04-21 08:00:09 51°13.703 2°55.776 122.7 3 302 -999
2009-04-21 08:00:14 51°13.705 2°55.77 125.3 3.4 304 5.4
2009-04-21 08:00:19 51°13.709 2°55.763 128.3 3.5 307 -999
2009-04-21 08:00:24 51°13.712 2°55.757 131.2 3.7 309 -999
2009-04-21 08:00:29 51°13.715 2°55.751 133.5 3.9 312 -999
2009-04-21 08:00:34 51°13.719 2°55.744 135.9 4 314 -999
2009-04-21 08:00:39 51°13.723 2°55.738 137.5 4.1 315 -999
2009-04-21 08:00:44 51°13.727 2°55.732 139.5 4.1 318 -999
2009-04-21 08:00:49 51°13.732 2°55.726 141.4 4.2 319 -999
2009-04-21 08:00:54 51°13.736 2°55.72 143.7 4.3 321 -999
2009-04-21 08:00:59 51°13.741 2°55.714 145.4 4.3 322 -999
2009-04-21 08:01:04 51°13.746 2°55.708 146.8 4.3 324 -999
2009-04-21 08:01:09 51°13.751 2°55.703 148.4 4.4 325 -999
2009-04-21 08:01:14 51°13.756 2°55.698 150 4.4 327 -999
2009-04-21 08:01:19 51°13.761 2°55.692 151.9 4.6 329 -999
2009-04-21 08:01:24 51°13.767 2°55.687 153.2 4.7 330 -999
2009-04-21 08:01:29 51°13.773 2°55.682 154.7 4.9 332 -999
2009-04-21 08:01:34 51°13.779 2°55.677 156.5 5.1 334 -999
2009-04-21 08:01:39 51°13.786 2°55.672 157.7 5.2 335 -999
2009-04-21 08:01:44 51°13.793 2°55.668 159.3 5.4 337 -999
2009-04-21 08:01:49 51°13.8 2°55.663 160.9 5.4 339 -999
2009-04-21 08:01:54 51°13.807 2°55.659 162.4 5.4 340 -999
2009-04-21 08:01:59 51°13.813 2°55.656 163.4 5.3 341 -999
2009-04-21 08:02:04 51°13.82 2°55.652 164.5 5.2 342 -999
2009-04-21 08:02:09 51°13.827 2°55.649 165.4 5.2 343 -999
2009-04-21 08:02:14 51°13.834 2°55.646 166.2 5.1 343 -999
2009-04-21 08:02:19 51°13.841 2°55.643 167.1 5 345 -999
2009-04-21 08:02:24 51°13.848 2°55.64 168.2 4.9 345 -999
2009-04-21 08:02:29 51°13.854 2°55.637 169.9 4.8 348 -999
2009-04-21 08:02:34 51°13.86 2°55.635 172.2 4.7 348 -999
2009-04-21 08:02:39 51°13.866 2°55.633 174.9 4.5 351 -999
2009-04-21 08:02:44 51°13.872 2°55.632 177.5 4.2 353 -999
2009-04-21 08:02:49 51°13.878 2°55.632 180.1 3.9 356 -999
2009-04-21 08:02:54 51°13.883 2°55.632 182.7 3.6 357 -999
2009-04-21 08:02:59 51°13.887 2°55.632 185.2 3.5 359 -999
2009-04-21 08:03:04 51°13.892 2°55.632 187.9 3.3 1 -999
2009-04-21 08:03:09 51°13.896 2°55.632 190 3.1 2 4.8
2009-04-21 08:03:14 51°13.9 2°55.633 192.5 2.9 6 -999
2009-04-21 08:03:19 51°13.904 2°55.633 194.7 2.8 7 11.9
2009-04-21 08:03:24 51°13.908 2°55.634 196.8 2.7 8 11.9
2009-04-21 08:03:29 51°13.911 2°55.635 198.3 2.3 10 11.9
2009-04-21 08:03:34 51°13.914 2°55.635 199.7 1.9 9 11.9
2009-04-21 08:03:38 51°13.915 2°55.635 202.3 1.2 1 12
2009-04-21 08:03:43 51°13.916 2°55.635 205.3 0.5 326 11.9
2009-04-21 08:03:48 51°13.916 2°55.633 209.5 0.6 262 11.9
2009-04-21 08:03:53 51°13.915 2°55.631 215.7 1.2 239 11.9
2009-04-21 08:03:58 51°13.914 2°55.629 221.5 1.4 240 11.9
2009-04-21 08:04:02 51°13.913 2°55.626 230.9 1.5 249 11.9
2009-04-21 08:04:07 51°13.912 2°55.623 238 1.5 245 11.9
2009-04-21 08:04:12 51°13.912 2°55.62 243.8 1.4 256 11.9
2009-04-21 08:04:17 51°13.911 2°55.617 247.9 1.2 257 12
2009-04-21 08:04:22 51°13.911 2°55.615 252.4 0.8 261 11.7
2009-04-21 08:04:27 51°13.911 2°55.614 254.8 0.5 266 11.8
2009-04-21 08:04:32 51°13.911 2°55.614 259.2 0.1 5 11.9
2009-04-21 08:04:36 51°13.911 2°55.615 262.8 0.5 76 11.7
2009-04-21 08:04:41 51°13.912 2°55.617 266.5 1 79 11.8
2009-04-21 08:04:46 51°13.912 2°55.62 269.4 1.2 90 12
2009-04-21 08:04:51 51°13.912 2°55.622 273.2 1.3 85 12
2009-04-21 08:04:56 51°13.912 2°55.625 276 1.3 97 -999
2009-04-21 08:05:02 51°13.912 2°55.628 278.8 1 90 -999
2009-04-21 08:05:07 51°13.912 2°55.63 280.5 0.6 90 -999
2009-04-21 08:05:13 51°13.912 2°55.63 282.7 0.2 5 -999
2009-04-21 08:05:19 51°13.913 2°55.629 285.9 0.5 306 4.7
2009-04-21 08:05:24 51°13.913 2°55.628 290.5 0.7 304 12
2009-04-21 08:05:29 51°13.914 2°55.627 294.7 1 305 4.8
2009-04-21 08:05:34 51°13.915 2°55.625 300.2 1.1 305 -999
2009-04-21 08:05:39 51°13.916 2°55.622 304.4 1.3 308 4.7
2009-04-21 08:05:44 51°13.917 2°55.62 308.2 1.4 310 4.8
2009-04-21 08:05:49 51°13.919 2°55.617 311.1 1.5 313 4.6
2009-04-21 08:05:54 51°13.921 2°55.615 314.7 1.7 316 5.2
2009-04-21 08:05:58 51°13.922 2°55.612 318 1.8 317 4.7
2009-04-21 08:06:03 51°13.924 2°55.61 320.7 2 320 4.8
2009-04-21 08:06:08 51°13.927 2°55.606 323.1 2.4 321 12
2009-04-21 08:06:14 51°13.931 2°55.602 325.3 3.2 324 12
2009-04-21 08:06:18 51°13.934 2°55.598 327.2 3.9 325 12.1
2009-04-21 08:06:23 51°13.94 2°55.593 328.4 4.5 327 12.1
2009-04-21 08:06:28 51°13.947 2°55.587 329 5.2 328 11.9
2009-04-21 08:06:33 51°13.953 2°55.581 329.3 5.8 330 11.8
2009-04-21 08:06:38 51°13.961 2°55.573 330.2 6.4 328 12
2009-04-21 08:06:42 51°13.967 2°55.567 330.8 6.8 330 11.8
2009-04-21 08:06:47 51°13.976 2°55.558 331.1 7.2 328 12.1
2009-04-21 08:06:52 51°13.985 2°55.55 331.1 7.6 330 12.1
2009-04-21 08:06:57 51°13.993 2°55.541 331.1 7.9 329 12.1
2009-04-21 08:07:02 51°14.004 2°55.532 331.8 8.2 331 12.1
2009-04-21 08:07:06 51°14.012 2°55.525 332.9 8.4 331 12.1
2009-04-21 08:07:11 51°14.022 2°55.516 332.9 8.5 330 12.1
2009-04-21 08:07:16 51°14.032 2°55.505 331.9 8.7 329 12.1
2009-04-21 08:07:21 51°14.042 2°55.496 332.3 8.8 331 12.1
2009-04-21 08:07:26 51°14.053 2°55.486 333.2 8.9 330 12
2009-04-21 08:07:31 51°14.064 2°55.476 333.1 9 330 12.1
2009-04-21 08:07:35 51°14.072 2°55.468 332.9 9.1 330 12.1
2009-04-21 08:07:41 51°14.085 2°55.456 332.9 9.1 331 12.1
2009-04-21 08:07:46 51°14.097 2°55.446 332.1 9.2 328 12
2009-04-21 08:07:50 51°14.105 2°55.437 331.1 9.2 329 12.1
2009-04-21 08:07:55 51°14.116 2°55.427 331.3 9.2 329 12
2009-04-21 08:08:01 51°14.129 2°55.414 331.3 9.2 328 12
2009-04-21 08:08:06 51°14.14 2°55.403 330.2 9.3 327 12
2009-04-21 08:08:10 51°14.149 2°55.394 328.8 9.3 326 12
2009-04-21 08:08:15 51°14.159 2°55.383 328.5 9.3 328 12
2009-04-21 08:08:21 51°14.172 2°55.369 329.2 9.3 327 12
2009-04-21 08:08:26 51°14.183 2°55.358 328.9 9.3 326 12
2009-04-21 08:08:30 51°14.191 2°55.348 327.6 9.3 326 12
2009-04-21 08:08:35 51°14.202 2°55.336 327.2 9.3 326 12.1
2009-04-21 08:08:41 51°14.214 2°55.323 328.6 9.3 328 12
2009-04-21 08:08:46 51°14.225 2°55.312 329.5 9.3 327 12
2009-04-21 08:08:50 51°14.234 2°55.303 329.1 9.3 326 12
2009-04-21 08:08:55 51°14.245 2°55.292 328.7 9.3 326 12
2009-04-21 08:09:00 51°14.256 2°55.28 327.9 9.3 325 12
2009-04-21 08:09:06 51°14.269 2°55.267 327.3 9.7 330 12.1
2009-04-21 08:09:11 51°14.279 2°55.254 326.2 9.5 326 12
2009-04-21 08:09:15 51°14.286 2°55.243 324.8 9.3 321 12
2009-04-21 08:09:21 51°14.298 2°55.226 323.5 9.4 320 12
2009-04-21 08:09:25 51°14.305 2°55.215 323.1 9.2 317 12.1
2009-04-21 08:09:30 51°14.315 2°55.202 322.6 9.3 317 12
2009-04-21 08:09:35 51°14.325 2°55.188 321.7 9.4 318 12.1
2009-04-21 08:09:41 51°14.337 2°55.171 320.9 9.5 318 11.8
2009-04-21 08:09:45 51°14.345 2°55.16 320.2 9.5 318 11.6
2009-04-21 08:09:50 51°14.353 2°55.144 319.3 9.5 317 11.6
2009-04-21 08:09:55 51°14.363 2°55.13 318.7 9.6 316 11.6
2009-04-21 08:10:01 51°14.374 2°55.111 316.8 9.6 313 11.7
2009-04-21 08:10:05 51°14.381 2°55.098 314 9.7 311 11.9
2009-04-21 08:10:10 51°14.39 2°55.082 312.3 9.7 312 12.1
2009-04-21 08:10:15 51°14.399 2°55.067 312.2 9.9 313 12.1
2009-04-21 08:10:21 51°14.411 2°55.047 312.5 9.8 313 12
2009-04-21 08:10:26 51°14.42 2°55.031 311.3 9.9 311 11.8
2009-04-21 08:10:30 51°14.426 2°55.017 308.6 9.9 308 11.8
2009-04-21 08:10:35 51°14.436 2°55 308.2 10.1 311 11.8
2009-04-21 08:10:41 51°14.446 2°54.979 307.1 10.1 306 11.9
2009-04-21 08:10:46 51°14.454 2°54.961 305.7 10.2 308 12
2009-04-21 08:10:50 51°14.461 2°54.946 305.2 10.2 305 12
2009-04-21 08:10:55 51°14.469 2°54.928 304.9 10.3 306 12
2009-04-21 08:11:00 51°14.477 2°54.909 302.7 10.3 300 11.9
2009-04-21 08:11:06 51°14.485 2°54.884 298.9 10.2 299 11.9
2009-04-21 08:11:11 51°14.491 2°54.864 297.5 10.2 299 11.8
2009-04-21 08:11:15 51°14.496 2°54.848 295.3 10.2 295 11.9
2009-04-21 08:11:21 51°14.504 2°54.824 293.6 10.2 296 11.9
2009-04-21 08:11:26 51°14.511 2°54.804 292.7 10.3 294 11.8
2009-04-21 08:11:30 51°14.515 2°54.788 291.4 10.4 293 11.9
2009-04-21 08:11:35 51°14.521 2°54.767 290.4 10.4 292 12
2009-04-21 08:11:41 51°14.527 2°54.741 289 10.4 291 12.1
2009-04-21 08:11:45 51°14.531 2°54.724 288.4 10.5 290 12.1
2009-04-21 08:11:50 51°14.536 2°54.702 288 10.5 290 12.1
2009-04-21 08:11:55 51°14.541 2°54.68 287.5 10.6 288 12
2009-04-21 08:12:01 51°14.547 2°54.653 287.2 10.6 289 12
2009-04-21 08:12:06 51°14.551 2°54.631 286.6 10.6 288 12
2009-04-21 08:12:10 51°14.555 2°54.613 286.3 10.7 288 12
2009-04-21 08:12:15 51°14.56 2°54.591 288.1 10.6 290 12
2009-04-21 08:12:21 51°14.566 2°54.565 288.6 10.6 290 12.1
2009-04-21 08:12:25 51°14.571 2°54.547 288.8 10.6 291 12.1
2009-04-21 08:12:30 51°14.576 2°54.526 289.4 10.6 291 12.1
2009-04-21 08:12:35 51°14.582 2°54.504 289.8 10.6 292 12.1
2009-04-21 08:12:41 51°14.589 2°54.478 290 10.6 292 12.1
2009-04-21 08:12:46 51°14.593 2°54.455 290.3 10.7 293 12.2
2009-04-21 08:12:50 51°14.597 2°54.437 290.9 10.7 293 12.2
2009-04-21 08:12:55 51°14.604 2°54.416 291.7 10.6 293 12.2
2009-04-21 08:13:01 51°14.61 2°54.39 292.1 10.7 293 12.3
2009-04-21 08:13:06 51°14.615 2°54.368 290 10.7 288 12.2
2009-04-21 08:13:10 51°14.62 2°54.351 288.6 10.7 290 12.3
2009-04-21 08:13:15 51°14.625 2°54.329 287.8 10.7 288 12.3
2009-04-21 08:13:20 51°14.63 2°54.306 286.5 10.7 287 12.4
2009-04-21 08:13:26 51°14.635 2°54.279 285.7 10.8 287 12.4
2009-04-21 08:13:30 51°14.638 2°54.261 285.4 10.8 286 12.4
2009-04-21 08:13:35 51°14.642 2°54.237 284.8 10.8 285 12.4
2009-04-21 08:13:41 51°14.644 2°54.207 283.9 10.8 283 12.4
2009-04-21 08:13:46 51°14.648 2°54.184 283.7 10.8 283 12.4
2009-04-21 08:13:50 51°14.65 2°54.165 283.1 10.8 284 12.4
2009-04-21 08:13:55 51°14.654 2°54.142 283 10.9 284 12.7
2009-04-21 08:14:01 51°14.659 2°54.115 283.2 10.8 285 12.5
2009-04-21 08:14:05 51°14.663 2°54.097 283.7 10.8 285 12.7
2009-04-21 08:14:10 51°14.667 2°54.075 283.5 10.9 284 12.8
2009-04-21 08:14:15 51°14.672 2°54.052 283.3 10.9 284 12.5
2009-04-21 08:14:21 51°14.674 2°54.022 283.4 10.9 283 12.4
2009-04-21 08:14:25 51°14.676 2°54.003 282 11 281 12.6
2009-04-21 08:14:30 51°14.679 2°53.979 280.5 11.1 280 12.5
2009-04-21 08:14:35 51°14.681 2°53.955 279.8 11 280 12.5
2009-04-21 08:14:41 51°14.684 2°53.926 278.3 11 278 12.4
2009-04-21 08:14:46 51°14.686 2°53.901 278.2 11.1 280 12.5
2009-04-21 08:14:50 51°14.688 2°53.882 278.6 11 278 12.4
2009-04-21 08:14:55 51°14.689 2°53.857 277.6 11.1 278 12.2
2009-04-21 08:15:01 51°14.692 2°53.828 277.1 11.1 277 12.1
2009-04-21 08:15:06 51°14.694 2°53.804 276.9 11.1 277 11.9
2009-04-21 08:15:10 51°14.697 2°53.785 277.3 11.1 279 11.8
2009-04-21 08:15:15 51°14.699 2°53.761 277.5 11.2 278 11.8
2009-04-21 08:15:20 51°14.7 2°53.736 277.4 11.2 277 11.8
2009-04-21 08:15:26 51°14.703 2°53.706 277.9 11.2 278 11.9
2009-04-21 08:15:30 51°14.705 2°53.687 278.1 11.3 278 11.8
2009-04-21 08:15:35 51°14.708 2°53.663 278.7 11.2 279 11.8
2009-04-21 08:15:40 51°14.711 2°53.639 279.1 11.3 280 11.8
2009-04-21 08:15:46 51°14.714 2°53.609 279.4 11.3 279 11.7
2009-04-21 08:15:50 51°14.717 2°53.59 279.5 11.3 280 11.8
2009-04-21 08:15:55 51°14.719 2°53.566 279.5 11.2 280 11.8
2009-04-21 08:16:01 51°14.721 2°53.535 279.3 11.2 279 11.7
2009-04-21 08:16:05 51°14.724 2°53.516 279 11.3 279 11.9
2009-04-21 08:16:10 51°14.726 2°53.491 279 11.2 280 11.7
2009-04-21 08:16:15 51°14.728 2°53.466 278.5 11.3 278 11.7
2009-04-21 08:16:21 51°14.73 2°53.436 278.1 11.2 279 11.7
2009-04-21 08:16:25 51°14.732 2°53.416 278.1 11.2 278 11.6
2009-04-21 08:16:31 51°14.735 2°53.387 278.1 11.2 279 11.4
2009-04-21 08:16:35 51°14.737 2°53.368 278.2 11.2 277 11.3
2009-04-21 08:16:41 51°14.739 2°53.338 277.2 11.3 278 11.3
2009-04-21 08:16:45 51°14.742 2°53.319 277.7 11.2 279 11.3
2009-04-21 08:16:50 51°14.744 2°53.295 278.5 11.2 278 11.1
2009-04-21 08:16:55 51°14.747 2°53.27 278.1 11.3 279 11
2009-04-21 08:17:01 51°14.748 2°53.24 277.7 11.2 277 11
2009-04-21 08:17:06 51°14.75 2°53.216 277.4 11.2 277 11
2009-04-21 08:17:10 51°14.752 2°53.196 277.1 11.2 278 10.9
2009-04-21 08:17:15 51°14.754 2°53.171 276.8 11.2 276 10.9
2009-04-21 08:17:21 51°14.757 2°53.142 277.2 11.2 279 11
2009-04-21 08:17:26 51°14.759 2°53.117 277.5 11.3 277 11.1
2009-04-21 08:17:30 51°14.76 2°53.097 278.1 11.2 277 11.1
2009-04-21 08:17:35 51°14.762 2°53.072 276.9 11.3 277 11.1
2009-04-21 08:17:40 51°14.764 2°53.048 277.6 11.2 279 11.2
2009-04-21 08:17:46 51°14.767 2°53.018 278.1 11.2 276 11.1
2009-04-21 08:17:51 51°14.77 2°52.994 277.8 11.2 280 11.2
2009-04-21 08:17:55 51°14.771 2°52.974 278.1 11.3 279 11.1
2009-04-21 08:18:01 51°14.774 2°52.944 279 11.3 281 11.2
2009-04-21 08:18:06 51°14.776 2°52.92 279.4 11.2 278 11.2
2009-04-21 08:18:10 51°14.779 2°52.9 279.4 11.2 281 11.2
2009-04-21 08:18:15 51°14.783 2°52.877 278.8 11.2 279 11.2
2009-04-21 08:18:21 51°14.786 2°52.847 278.5 11.3 280 11.3
2009-04-21 08:18:25 51°14.789 2°52.828 278.3 11.2 279 11.3
2009-04-21 08:18:30 51°14.79 2°52.803 278.4 11.2 279 11.4
2009-04-21 08:18:35 51°14.792 2°52.778 278.6 11.2 278 11.3
2009-04-21 08:18:41 51°14.793 2°52.748 278 11.2 277 11.4
2009-04-21 08:18:45 51°14.795 2°52.728 278.1 11.1 278 11.4
2009-04-21 08:18:51 51°14.797 2°52.699 277.7 11.1 278 11.4
2009-04-21 08:18:55 51°14.798 2°52.679 278.5 11.1 278 11.4
2009-04-21 08:19:01 51°14.801 2°52.65 278.4 11.1 278 11.4
2009-04-21 08:19:05 51°14.803 2°52.63 278.5 11 278 11.4
2009-04-21 08:19:10 51°14.805 2°52.605 278.6 11.1 278 11.4
2009-04-21 08:19:15 51°14.807 2°52.581 278.5 11.1 279 11.4
2009-04-21 08:19:21 51°14.81 2°52.552 278.8 11.1 278 11.4
2009-04-21 08:19:26 51°14.813 2°52.528 278.9 11 279 11.4
2009-04-21 08:19:30 51°14.814 2°52.509 278.1 11.1 279 11.5
2009-04-21 08:19:35 51°14.818 2°52.485 279 11.2 279 11.5
2009-04-21 08:19:41 51°14.82 2°52.454 279.5 11.1 280 11.6
2009-04-21 08:19:46 51°14.822 2°52.43 280.2 11.1 280 11.7
2009-04-21 08:19:50 51°14.824 2°52.41 280.2 11.1 281 11.7
2009-04-21 08:19:55 51°14.827 2°52.386 280.7 11.1 281 11.8
2009-04-21 08:20:01 51°14.83 2°52.357 280.4 11.2 281 11.8
2009-04-21 08:20:06 51°14.833 2°52.334 279.4 11.1 279 11.7
2009-04-21 08:20:10 51°14.835 2°52.314 279.9 11.1 280 11.7
2009-04-21 08:20:15 51°14.838 2°52.29 279.5 11.1 278 11.7
2009-04-21 08:20:21 51°14.84 2°52.261 278.8 11.2 279 11.7
2009-04-21 08:20:26 51°14.842 2°52.236 278.2 11.1 277 11.7
2009-04-21 08:20:30 51°14.844 2°52.216 278.4 11.2 278 11.8
2009-04-21 08:20:35 51°14.847 2°52.192 278.9 11.2 279 11.9
2009-04-21 08:20:41 51°14.85 2°52.163 278.9 11.2 279 11.9
2009-04-21 08:20:46 51°14.853 2°52.139 278.4 11.2 279 11.9
2009-04-21 08:20:50 51°14.854 2°52.119 278.6 11.2 279 11.9
2009-04-21 08:20:55 51°14.857 2°52.094 278.8 11.2 279 11.9
2009-04-21 08:21:01 51°14.859 2°52.064 278.9 11.2 279 12
2009-04-21 08:21:05 51°14.861 2°52.044 278.8 11.2 279 11.9
2009-04-21 08:21:10 51°14.863 2°52.02 278 11.2 278 12
2009-04-21 08:21:15 51°14.865 2°51.996 277.8 11.1 279 12
2009-04-21 08:21:21 51°14.867 2°51.966 278.1 11.1 278 12
2009-04-21 08:21:26 51°14.87 2°51.942 278.6 11.1 279 12.2
2009-04-21 08:21:30 51°14.871 2°51.922 278.1 11.1 278 12.1
2009-04-21 08:21:35 51°14.874 2°51.898 278.4 11.2 279 12.3
2009-04-21 08:21:41 51°14.876 2°51.869 279 11.2 278 12.3
2009-04-21 08:21:46 51°14.879 2°51.845 279.2 11.2 280 12.3
2009-04-21 08:21:50 51°14.881 2°51.825 280.3 11.1 280 12.3
2009-04-21 08:21:55 51°14.884 2°51.801 280.4 11.2 281 12.3
2009-04-21 08:22:01 51°14.888 2°51.772 280.7 11.2 281 12.4
2009-04-21 08:22:06 51°14.891 2°51.747 280.6 11.2 281 12.4
2009-04-21 08:22:10 51°14.893 2°51.728 280.8 11.2 281 12.6
2009-04-21 08:22:15 51°14.896 2°51.703 280.7 11.3 280 12.7
2009-04-21 08:22:21 51°14.899 2°51.674 280.1 11.3 281 12.7
2009-04-21 08:22:26 51°14.901 2°51.649 280.5 11.2 279 12.6
2009-04-21 08:22:30 51°14.904 2°51.63 280.1 11.2 280 12.5
2009-04-21 08:22:35 51°14.906 2°51.606 280 11.3 279 12.7
2009-04-21 08:22:41 51°14.91 2°51.576 280.4 11.3 281 12.7
2009-04-21 08:22:46 51°14.912 2°51.552 279.6 11.2 278 12.8
2009-04-21 08:22:50 51°14.915 2°51.533 279.6 11.2 281 12.8
2009-04-21 08:22:55 51°14.918 2°51.509 280.2 11.3 278 12.9
2009-04-21 08:23:01 51°14.921 2°51.479 280.1 11.3 282 13
2009-04-21 08:23:05 51°14.924 2°51.46 280.6 11.3 279 13
2009-04-21 08:23:10 51°14.926 2°51.435 280.4 11.3 281 13.1
2009-04-21 08:23:15 51°14.929 2°51.41 281 11.3 281 13.1
2009-04-21 08:23:21 51°14.931 2°51.38 280.6 11.4 279 13.1
2009-04-21 08:23:25 51°14.934 2°51.36 280.5 11.4 282 13.1
2009-04-21 08:23:30 51°14.937 2°51.335 281 11.4 280 13.2
2009-04-21 08:23:35 51°14.939 2°51.311 280.8 11.4 280 13.2
2009-04-21 08:23:41 51°14.942 2°51.281 280.1 11.4 279 13.3
2009-04-21 08:23:46 51°14.945 2°51.256 279.1 11.4 279 13.3
2009-04-21 08:23:50 51°14.947 2°51.236 279 11.4 278 13.3
2009-04-21 08:23:55 51°14.95 2°51.21 278.6 11.4 279 13.4
2009-04-21 08:24:01 51°14.953 2°51.181 279.8 11.4 280 13.4
2009-04-21 08:24:06 51°14.955 2°51.156 279.5 11.4 279 13.4
2009-04-21 08:24:10 51°14.957 2°51.135 279.2 11.4 279 13.4
2009-04-21 08:24:15 51°14.959 2°51.11 278.5 11.4 278 13.5
2009-04-21 08:24:21 51°14.962 2°51.08 278.2 11.4 278 13.6
2009-04-21 08:24:26 51°14.964 2°51.055 278.1 11.4 279 13.6
2009-04-21 08:24:30 51°14.966 2°51.035 278.1 11.4 278 13.7
2009-04-21 08:24:35 51°14.968 2°51.011 277.9 11.4 277 13.7
2009-04-21 08:24:41 51°14.971 2°50.981 277.6 11.4 279 13.8
2009-04-21 08:24:46 51°14.973 2°50.956 278.1 11.4 277 13.8
2009-04-21 08:24:50 51°14.975 2°50.936 278.1 11.4 279 13.8
2009-04-21 08:24:55 51°14.977 2°50.91 278.1 11.4 278 13.8
2009-04-21 08:25:01 51°14.98 2°50.881 277.5 11.4 278 13.8
2009-04-21 08:25:05 51°14.982 2°50.861 278.1 11.4 279 13.9
2009-04-21 08:25:11 51°14.985 2°50.831 278.8 11.5 280 13.9
2009-04-21 08:25:15 51°14.987 2°50.811 279.8 11.5 280 14
2009-04-21 08:25:21 51°14.989 2°50.781 279.5 11.4 278 14
2009-04-21 08:25:25 51°14.992 2°50.762 279 11.2 280 14.1
2009-04-21 08:25:30 51°14.994 2°50.738 279.3 11 279 14.2
2009-04-21 08:25:35 51°14.997 2°50.714 279.7 10.8 281 14
2009-04-21 08:25:41 51°15 2°50.686 280 10.7 280 14.1
2009-04-21 08:25:46 51°15.002 2°50.663 279.5 10.6 279 14.1
2009-04-21 08:25:50 51°15.004 2°50.645 279.1 10.5 281 14.1
2009-04-21 08:25:55 51°15.007 2°50.623 279.4 10.4 279 14.1
2009-04-21 08:26:01 51°15.009 2°50.596 278.8 10.3 279 14.1
2009-04-21 08:26:05 51°15.012 2°50.578 278.6 10.2 280 14.2
2009-04-21 08:26:10 51°15.014 2°50.556 279 9.8 280 14.2
2009-04-21 08:26:15 51°15.016 2°50.536 278.9 9.1 283 14.2
2009-04-21 08:26:21 51°15.021 2°50.515 282.4 8.3 291 14.3
2009-04-21 08:26:26 51°15.026 2°50.501 288.8 7.6 298 14.3
2009-04-21 08:26:30 51°15.031 2°50.491 296.1 6.9 306 14.4
2009-04-21 08:26:35 51°15.037 2°50.481 302.7 6.2 311 14.4
2009-04-21 08:26:41 51°15.044 2°50.471 309.3 5.7 318 14.3
2009-04-21 08:26:46 51°15.05 2°50.464 313.3 5.3 324 14.3
2009-04-21 08:26:50 51°15.054 2°50.459 318.8 4.9 328 14.4
2009-04-21 08:26:55 51°15.059 2°50.454 322.2 4.7 333 14.5
2009-04-21 08:27:01 51°15.066 2°50.449 326.2 4.5 336 14.5
2009-04-21 08:27:06 51°15.072 2°50.447 329.9 4.5 342 14.5
2009-04-21 08:27:10 51°15.077 2°50.445 335.1 4.5 348 14.6
2009-04-21 08:27:15 51°15.083 2°50.444 340.9 4.5 354 14.7
2009-04-21 08:27:21 51°15.09 2°50.444 347.3 4.5 1 14.6
2009-04-21 08:27:26 51°15.096 2°50.444 353.7 4.4 6 14.6
2009-04-21 08:27:30 51°15.101 2°50.446 0.1 4.3 13 14.6
2009-04-21 08:27:35 51°15.106 2°50.449 6.5 4.3 18 14.7
2009-04-21 08:27:41 51°15.113 2°50.453 12.5 4.3 24 14.5
2009-04-21 08:27:45 51°15.117 2°50.457 18.4 4.2 29 14.5
2009-04-21 08:27:50 51°15.122 2°50.462 25.4 4.2 34 14.5
2009-04-21 08:27:55 51°15.126 2°50.468 29.8 4.2 38 14.5
2009-04-21 08:28:01 51°15.131 2°50.476 35.5 4.2 45 14.6
2009-04-21 08:28:06 51°15.135 2°50.482 41.4 4.1 47 14.6
2009-04-21 08:28:10 51°15.138 2°50.488 47.3 4 52 14.6
2009-04-21 08:28:15 51°15.141 2°50.495 52.8 3.8 58 14.6
2009-04-21 08:28:21 51°15.144 2°50.504 57.5 3.7 60 14.5
2009-04-21 08:28:26 51°15.146 2°50.511 62 3.7 62 14.5
2009-04-21 08:28:30 51°15.148 2°50.516 66.3 3.6 65 14.6
2009-04-21 08:28:35 51°15.151 2°50.522 70.9 3.4 68 14.3
2009-04-21 08:28:41 51°15.153 2°50.53 75.1 3.1 72 14.5
2009-04-21 08:28:46 51°15.154 2°50.536 78.1 2.7 71 14.6
2009-04-21 08:28:50 51°15.155 2°50.54 81.4 2.4 77 14.6
2009-04-21 08:28:55 51°15.155 2°50.546 85 2.2 75 14.6
2009-04-21 08:29:01 51°15.155 2°50.551 88.5 1.9 76 14.6
2009-04-21 08:29:06 51°15.155 2°50.555 91.6 1.7 77 14.6
2009-04-21 08:29:10 51°15.156 2°50.558 94.5 1.5 76 14.6
2009-04-21 08:29:15 51°15.156 2°50.561 97.3 1.5 81 14.7
2009-04-21 08:29:20 51°15.156 2°50.564 100 1.5 78 14.7
2009-04-21 08:29:26 51°15.157 2°50.568 102 1.5 83 14.7
2009-04-21 08:29:31 51°15.157 2°50.571 104.3 1.4 84 14.6
2009-04-21 08:29:35 51°15.157 2°50.574 106.5 1.4 83 14.7
2009-04-21 08:29:41 51°15.157 2°50.577 108.6 1.3 86 14.6
2009-04-21 08:29:46 51°15.157 2°50.58 110.6 1.4 88 14.6
2009-04-21 08:29:50 51°15.157 2°50.583 112.9 1.4 86 14.5
2009-04-21 08:29:55 51°15.157 2°50.586 114.8 1.3 91 14.6
2009-04-21 08:30:01 51°15.157 2°50.589 116.8 1.2 92 14.6
2009-04-21 08:30:05 51°15.157 2°50.591 118.9 1.2 92 14.6
2009-04-21 08:30:10 51°15.157 2°50.594 120.7 1.2 95 14.6
2009-04-21 08:30:15 51°15.157 2°50.597 122 1.3 98 14.6
2009-04-21 08:30:21 51°15.157 2°50.6 123 1.3 95 14.6
2009-04-21 08:30:25 51°15.157 2°50.602 123.9 1.2 100 14.6
2009-04-21 08:30:30 51°15.156 2°50.605 124.8 1.2 98 14.6
2009-04-21 08:30:35 51°15.156 2°50.607 125.5 1.2 101 14.6
2009-04-21 08:30:41 51°15.156 2°50.611 125.7 1.2 95 14.7
2009-04-21 08:30:46 51°15.156 2°50.613 125.8 1.2 99 14.7
2009-04-21 08:30:50 51°15.156 2°50.615 125.7 1.2 97 14.7
2009-04-21 08:30:55 51°15.155 2°50.618 125.5 1.2 98 14.6
2009-04-21 08:31:01 51°15.155 2°50.621 125.3 1.2 93 14.5
2009-04-21 08:31:06 51°15.155 2°50.623 125.1 1.2 98 14.5
2009-04-21 08:31:10 51°15.155 2°50.625 124.5 1.2 95 14.6
2009-04-21 08:31:15 51°15.155 2°50.628 124 1.2 96 14.5
2009-04-21 08:31:21 51°15.154 2°50.631 123.4 1.1 95 14.5
2009-04-21 08:31:26 51°15.154 2°50.634 123.1 1.1 97 14.6
2009-04-21 08:31:30 51°15.154 2°50.636 122.2 1.2 94 14.6
2009-04-21 08:31:35 51°15.154 2°50.638 121.9 1.2 93 14.4
2009-04-21 08:31:41 51°15.154 2°50.641 121.1 1.1 97 14.6
2009-04-21 08:31:46 51°15.153 2°50.644 120.7 1.2 94 14.5
2009-04-21 08:31:50 51°15.153 2°50.646 120.3 1.1 97 14.5
2009-04-21 08:31:55 51°15.153 2°50.648 119.8 1.2 91 14.5
2009-04-21 08:32:01 51°15.153 2°50.651 119.3 1.1 97 14.5
2009-04-21 08:32:06 51°15.153 2°50.654 119 1 95 14.5
2009-04-21 08:32:10 51°15.153 2°50.655 118.8 1.1 96 14.6
2009-04-21 08:32:15 51°15.153 2°50.658 118.5 1.1 90 14.5
2009-04-21 08:32:21 51°15.153 2°50.661 118.2 1.1 92 14.5
2009-04-21 08:32:26 51°15.153 2°50.663 117.9 1.1 90 14.5
2009-04-21 08:32:30 51°15.153 2°50.665 117.6 1.1 92 14.4
2009-04-21 08:32:35 51°15.153 2°50.668 117 1.1 87 14.4
2009-04-21 08:32:41 51°15.153 2°50.671 116.6 1.1 93 14.5
2009-04-21 08:32:45 51°15.153 2°50.673 116 1.1 88 14.5
2009-04-21 08:32:50 51°15.152 2°50.675 115.6 1.1 93 14.3
2009-04-21 08:32:55 51°15.152 2°50.678 115.3 1.2 85 14.5
2009-04-21 08:33:01 51°15.152 2°50.681 114.8 1.1 92 14.6
2009-04-21 08:33:06 51°15.152 2°50.683 114.3 1.1 89 14.6
2009-04-21 08:33:10 51°15.152 2°50.685 114.3 1.1 87 14.4
2009-04-21 08:33:15 51°15.152 2°50.687 113.9 1.1 88 14.3
2009-04-21 08:33:21 51°15.153 2°50.69 113.3 1.2 87 14.6
2009-04-21 08:33:26 51°15.153 2°50.693 112.6 1.1 89 14.5
2009-04-21 08:33:30 51°15.153 2°50.695 112.3 1.1 92 14.5
2009-04-21 08:33:35 51°15.153 2°50.697 112 1.1 95 14.6
2009-04-21 08:33:41 51°15.152 2°50.7 111.8 1.1 95 14.5
2009-04-21 08:33:46 51°15.153 2°50.702 111.7 1.1 92 14.6
2009-04-21 08:33:50 51°15.153 2°50.705 111.3 1.1 89 14.6
2009-04-21 08:33:55 51°15.153 2°50.707 111.1 1.1 91 14.6
2009-04-21 08:34:01 51°15.153 2°50.71 110.4 1.2 86 14.5
2009-04-21 08:34:06 51°15.153 2°50.712 110 1.1 90 14.6
2009-04-21 08:34:10 51°15.153 2°50.714 109.7 1.1 88 14.6
2009-04-21 08:34:15 51°15.153 2°50.717 109.4 1.1 91 14.5
2009-04-21 08:34:21 51°15.153 2°50.72 109 1.1 91 14.5
2009-04-21 08:34:25 51°15.153 2°50.721 108.7 1.1 92 14.4
2009-04-21 08:34:31 51°15.153 2°50.725 108.5 1.2 94 14.4
2009-04-21 08:34:35 51°15.153 2°50.727 108.4 1.3 95 14.4
2009-04-21 08:34:41 51°15.153 2°50.731 108.9 1.4 95 14.4
2009-04-21 08:34:45 51°15.153 2°50.733 109.5 1.4 97 14.4
2009-04-21 08:34:50 51°15.152 2°50.737 110.5 1.7 99 14.4
2009-04-21 08:34:55 51°15.152 2°50.741 111.9 2.2 102 14.3
2009-04-21 08:35:01 51°15.151 2°50.748 115 2.6 103 14.4
2009-04-21 08:35:06 51°15.149 2°50.754 119.5 3 108 14.6
2009-04-21 08:35:10 51°15.148 2°50.759 124.6 3.2 115 14.5
2009-04-21 08:35:15 51°15.146 2°50.766 130.4 3.4 119 14.3
2009-04-21 08:35:21 51°15.142 2°50.774 137.1 3.5 125 14.2
2009-04-21 08:35:26 51°15.139 2°50.78 143.6 3.6 129 14.6
2009-04-21 08:35:30 51°15.136 2°50.784 150 3.6 138 14.5
2009-04-21 08:35:35 51°15.132 2°50.789 156.7 3.6 143 14.5
2009-04-21 08:35:41 51°15.127 2°50.793 163.9 3.4 152 14.2
2009-04-21 08:35:46 51°15.123 2°50.796 171.5 3.4 158 14.3
2009-04-21 08:35:51 51°15.118 2°50.798 179.2 3.3 167 14.3
2009-04-21 08:35:55 51°15.115 2°50.798 186.6 3.2 175 14.3
2009-04-21 08:36:01 51°15.109 2°50.798 193.7 3.1 184 14.2
2009-04-21 08:36:06 51°15.105 2°50.796 200.9 3 193 14.3
2009-04-21 08:36:10 51°15.102 2°50.794 208.2 2.9 202 14.3
2009-04-21 08:36:15 51°15.099 2°50.791 215.5 2.9 210 14.4
2009-04-21 08:36:21 51°15.094 2°50.787 222.9 3 216 14.2
2009-04-21 08:36:26 51°15.091 2°50.782 229.3 3.1 223 14.4
2009-04-21 08:36:30 51°15.089 2°50.777 232.9 3.3 228 14.4
2009-04-21 08:36:35 51°15.086 2°50.771 235.6 3.4 234 14.4
2009-04-21 08:36:41 51°15.083 2°50.763 238.9 3.7 236 14.2
2009-04-21 08:36:46 51°15.08 2°50.756 241.9 3.8 244 14.3
2009-04-21 08:36:50 51°15.078 2°50.75 245.4 3.9 244 14.3
2009-04-21 08:36:55 51°15.077 2°50.742 248.3 3.9 250 14.2
2009-04-21 08:37:01 51°15.074 2°50.732 251.1 3.9 250 14.4
2009-04-21 08:37:06 51°15.073 2°50.724 253.3 3.8 254 14.4
2009-04-21 08:37:10 51°15.072 2°50.717 254.7 3.9 255 14.4
2009-04-21 08:37:15 51°15.071 2°50.709 255.6 3.9 259 14.4
2009-04-21 08:37:21 51°15.069 2°50.699 256.7 3.8 256 14.4
2009-04-21 08:37:26 51°15.068 2°50.691 257.4 3.7 259 14.3
2009-04-21 08:37:30 51°15.067 2°50.685 257.4 3.6 258 14.4
2009-04-21 08:37:35 51°15.067 2°50.677 257.9 3.6 261 14.5
2009-04-21 08:37:41 51°15.066 2°50.667 258.6 3.5 260 14.5
2009-04-21 08:37:46 51°15.065 2°50.66 259.1 3.5 262 14.4
2009-04-21 08:37:50 51°15.064 2°50.654 259.1 3.5 262 14.4
2009-04-21 08:37:55 51°15.063 2°50.646 259.2 3.4 263 14.3
2009-04-21 08:38:01 51°15.063 2°50.637 259.3 3.4 262 14.4
2009-04-21 08:38:06 51°15.062 2°50.63 259.2 3.4 260 14.4
2009-04-21 08:38:10 51°15.061 2°50.624 258.8 3.3 260 14.5
2009-04-21 08:38:15 51°15.06 2°50.617 257.9 3.3 257 14.5
2009-04-21 08:38:21 51°15.059 2°50.608 256.8 3.3 257 14.6
2009-04-21 08:38:26 51°15.058 2°50.601 255.6 3.3 257 14.6
2009-04-21 08:38:31 51°15.057 2°50.594 254.4 3.3 255 14.6
2009-04-21 08:38:35 51°15.056 2°50.588 253.1 3.3 254 14.6
2009-04-21 08:38:41 51°15.054 2°50.58 251.8 3.3 253 14.6
2009-04-21 08:38:46 51°15.053 2°50.573 250.5 3.4 251 14.6
2009-04-21 08:38:50 51°15.052 2°50.567 249.2 3.3 251 14.6
2009-04-21 08:38:55 51°15.05 2°50.56 248.6 3.4 252 14.6
2009-04-21 08:39:01 51°15.048 2°50.552 249 3.4 251 14.5
2009-04-21 08:39:06 51°15.047 2°50.544 250.5 3.4 253 14.4
2009-04-21 08:39:10 51°15.046 2°50.538 252.2 3.5 256 14.5
2009-04-21 08:39:15 51°15.045 2°50.531 254.1 3.5 257 14.6
2009-04-21 08:39:21 51°15.044 2°50.522 255.9 3.5 259 14.6
2009-04-21 08:39:25 51°15.043 2°50.516 257.3 3.5 261 14.5
2009-04-21 08:39:30 51°15.043 2°50.508 259.2 3.4 263 14.4
2009-04-21 08:39:35 51°15.042 2°50.501 260.1 3.4 263 14.6
2009-04-21 08:39:41 51°15.041 2°50.492 261.2 3.4 264 14.5
2009-04-21 08:39:46 51°15.041 2°50.484 261.6 3.5 263 14.6
2009-04-21 08:39:50 51°15.041 2°50.478 262.2 3.5 266 14.6
2009-04-21 08:39:55 51°15.041 2°50.471 262.8 3.4 264 14.5
2009-04-21 08:40:01 51°15.041 2°50.462 263 3.4 267 14.4
2009-04-21 08:40:06 51°15.041 2°50.454 263.5 3.4 266 14.5
2009-04-21 08:40:10 51°15.04 2°50.448 263.8 3.4 268 14.5
2009-04-21 08:40:15 51°15.04 2°50.441 263.8 3.4 268 14.5
2009-04-21 08:40:21 51°15.04 2°50.432 264.1 3.4 267 14.6
2009-04-21 08:40:26 51°15.039 2°50.424 264.4 3.3 268 14.6
2009-04-21 08:40:30 51°15.039 2°50.419 264.6 3.3 268 14.5
2009-04-21 08:40:35 51°15.039 2°50.411 264.7 3.3 269 14.5
2009-04-21 08:40:41 51°15.039 2°50.402 264.8 3.4 268 14.6
2009-04-21 08:40:46 51°15.039 2°50.395 264.6 3.3 268 14.6
2009-04-21 08:40:50 51°15.039 2°50.389 263.9 3.3 267 14.6
2009-04-21 08:40:55 51°15.038 2°50.382 263 3.3 267 14.6
2009-04-21 08:41:01 51°15.038 2°50.373 261.4 3.3 264 14.7
2009-04-21 08:41:06 51°15.037 2°50.366 260 3.3 262 14.6
2009-04-21 08:41:10 51°15.036 2°50.361 258.3 3.3 258 14.7
2009-04-21 08:41:15 51°15.035 2°50.354 256.8 3.2 259 14.7
2009-04-21 08:41:21 51°15.034 2°50.346 255.1 3.2 254 14.7
2009-04-21 08:41:25 51°15.033 2°50.34 252.9 3.2 253 14.7
2009-04-21 08:41:31 51°15.031 2°50.332 250.4 3.2 250 14.6
2009-04-21 08:41:35 51°15.03 2°50.327 248.1 3.2 247 14.6
2009-04-21 08:41:41 51°15.027 2°50.319 246.6 3.2 244 14.6
2009-04-21 08:41:46 51°15.026 2°50.313 244.6 3.2 245 14.6
2009-04-21 08:41:50 51°15.024 2°50.309 242.5 3.2 238 14.6
2009-04-21 08:41:55 51°15.022 2°50.303 240.2 3.2 239 14.7
2009-04-21 08:42:01 51°15.018 2°50.296 237.6 3.2 235 14.6
2009-04-21 08:42:06 51°15.016 2°50.29 236.1 3.2 233 14.7
2009-04-21 08:42:10 51°15.013 2°50.286 234.2 3.2 229 14.6
2009-04-21 08:42:15 51°15.01 2°50.281 231.6 3.2 227 14.6
2009-04-21 08:42:21 51°15.007 2°50.275 230 3.1 224 14.6
2009-04-21 08:42:26 51°15.003 2°50.27 227.9 3.1 220 14.6
2009-04-21 08:42:30 51°15 2°50.266 225.3 3.2 221 14.6
2009-04-21 08:42:35 51°14.997 2°50.262 223.3 3.2 218 14.6
2009-04-21 08:42:41 51°14.993 2°50.257 221.7 3.2 218 14.6
2009-04-21 08:42:46 51°14.989 2°50.252 222 3.3 218 14.5
2009-04-21 08:42:50 51°14.986 2°50.249 222.9 3.3 222 14.6
2009-04-21 08:42:55 51°14.983 2°50.244 224.4 3.3 218 14.6
2009-04-21 08:43:01 51°14.979 2°50.238 225.7 3.3 224 14.5
2009-04-21 08:43:06 51°14.975 2°50.234 226.8 3.2 221 14.6
2009-04-21 08:43:10 51°14.973 2°50.229 227.7 3.2 224 14.5
2009-04-21 08:43:15 51°14.97 2°50.225 227.9 3.3 224 14.6
2009-04-21 08:43:21 51°14.966 2°50.219 228.7 3.3 225 14.6
2009-04-21 08:43:25 51°14.963 2°50.214 229.7 3.3 226 14.6
2009-04-21 08:43:30 51°14.96 2°50.209 229.9 3.2 225 14.6
2009-04-21 08:43:35 51°14.957 2°50.204 229.9 3.3 226 14.6
2009-04-21 08:43:41 51°14.953 2°50.198 230.3 3.3 227 14.6
2009-04-21 08:43:45 51°14.951 2°50.194 230.5 3.3 227 14.6
2009-04-21 08:43:50 51°14.947 2°50.189 230.5 3.2 226 14.6
2009-04-21 08:43:55 51°14.944 2°50.183 230.2 3.2 226 14.6
2009-04-21 08:44:01 51°14.94 2°50.177 230.2 3.2 226 14.6
2009-04-21 08:44:06 51°14.937 2°50.172 230.1 3.2 226 14.5
2009-04-21 08:44:10 51°14.935 2°50.168 230.1 3.3 226 14.5
2009-04-21 08:44:15 51°14.932 2°50.162 230.2 3.3 227 14.5
2009-04-21 08:44:21 51°14.928 2°50.156 230.5 3.2 226 14.5
2009-04-21 08:44:26 51°14.925 2°50.151 230.5 3.2 222 14.5
2009-04-21 08:44:30 51°14.922 2°50.147 229.8 3.2 225 14.5
2009-04-21 08:44:35 51°14.919 2°50.142 229.5 3.3 225 14.5
2009-04-21 08:44:41 51°14.915 2°50.136 229.4 3.3 225 14.5
2009-04-21 08:44:46 51°14.912 2°50.131 229.7 3.3 226 14.5
2009-04-21 08:44:50 51°14.909 2°50.127 229.7 3.3 226 14.5
2009-04-21 08:44:55 51°14.906 2°50.122 229.9 3.3 225 14.6
2009-04-21 08:45:01 51°14.902 2°50.115 230.2 3.3 226 14.6
2009-04-21 08:45:06 51°14.899 2°50.11 230.2 3.3 225 14.6
2009-04-21 08:45:10 51°14.897 2°50.106 230.2 3.3 227 14.5
2009-04-21 08:45:15 51°14.893 2°50.101 230.2 3.3 226 14.5
2009-04-21 08:45:21 51°14.89 2°50.095 230.3 3.2 226 14.5
2009-04-21 08:45:26 51°14.887 2°50.089 230.2 3.3 226 14.5
2009-04-21 08:45:31 51°14.883 2°50.084 230.2 3.3 227 14.5
2009-04-21 08:45:35 51°14.881 2°50.08 230.2 3.3 226 14.5
2009-04-21 08:45:41 51°14.877 2°50.074 230.4 3.3 227 14.5
2009-04-21 08:45:45 51°14.875 2°50.07 230.3 3.3 226 14.5
2009-04-21 08:45:50 51°14.871 2°50.064 230.5 3.3 226 14.5
2009-04-21 08:45:55 51°14.868 2°50.059 230.4 3.3 227 14.5
2009-04-21 08:46:01 51°14.865 2°50.053 230.4 3.3 225 14.5
2009-04-21 08:46:06 51°14.861 2°50.048 230.2 3.3 226 14.5
2009-04-21 08:46:10 51°14.859 2°50.044 230.1 3.3 226 14.4
2009-04-21 08:46:15 51°14.856 2°50.039 230.1 3.3 227 14.4
2009-04-21 08:46:21 51°14.852 2°50.033 230.2 3.2 224 14.5
2009-04-21 08:46:26 51°14.849 2°50.027 230.1 3.2 226 14.5
2009-04-21 08:46:30 51°14.846 2°50.023 229.9 3.2 226 14.4
2009-04-21 08:46:35 51°14.843 2°50.018 230 3.2 224 14.4
2009-04-21 08:46:41 51°14.839 2°50.012 230 3.2 225 14.5
2009-04-21 08:46:46 51°14.836 2°50.007 230 3.2 224 14.5
2009-04-21 08:46:50 51°14.834 2°50.003 229.8 3.2 226 14.5
2009-04-21 08:46:55 51°14.83 2°49.998 229.8 3.2 224 14.4
2009-04-21 08:47:01 51°14.827 2°49.992 229.6 3.2 226 14.5
2009-04-21 08:47:06 51°14.823 2°49.987 229.6 3.2 223 14.4
2009-04-21 08:47:10 51°14.821 2°49.983 229.4 3.2 225 14.4
2009-04-21 08:47:15 51°14.818 2°49.979 229.5 3.2 222 14.5
2009-04-21 08:47:21 51°14.814 2°49.973 229.4 3.2 225 14.4
2009-04-21 08:47:26 51°14.811 2°49.968 229.1 3.2 222 14.4
2009-04-21 08:47:30 51°14.808 2°49.964 229.2 3.1 224 14.4
2009-04-21 08:47:35 51°14.805 2°49.959 228.7 3.2 220 14.3
2009-04-21 08:47:41 51°14.801 2°49.953 228.4 3.2 224 14.3
2009-04-21 08:47:46 51°14.798 2°49.949 228.1 3.2 222 14.3
2009-04-21 08:47:50 51°14.795 2°49.945 228.6 3.1 222 14.4
2009-04-21 08:47:55 51°14.792 2°49.941 228.7 3.2 222 14.4
2009-04-21 08:48:01 51°14.788 2°49.935 228.7 3.1 224 14.4
2009-04-21 08:48:05 51°14.785 2°49.931 228.7 3.2 220 14.4
2009-04-21 08:48:11 51°14.782 2°49.926 228.9 3.1 224 14.3
2009-04-21 08:48:15 51°14.779 2°49.922 228.9 3.1 221 14.4
2009-04-21 08:48:21 51°14.775 2°49.916 229.1 3.1 224 14.4
2009-04-21 08:48:26 51°14.772 2°49.911 229.3 3.1 225 14.4
2009-04-21 08:48:30 51°14.77 2°49.908 229.4 3.2 224 14.4
2009-04-21 08:48:35 51°14.766 2°49.903 229.6 3.2 225 14.4
2009-04-21 08:48:41 51°14.763 2°49.897 229.7 3.2 221 14.4
2009-04-21 08:48:46 51°14.76 2°49.892 229.4 3.2 226 14.3
2009-04-21 08:48:50 51°14.757 2°49.888 229.4 3.3 222 14.3
2009-04-21 08:48:55 51°14.754 2°49.883 229.4 3.3 224 14.3
2009-04-21 08:49:01 51°14.749 2°49.877 229.4 3.4 222 14.3
2009-04-21 08:49:06 51°14.746 2°49.871 229.5 3.4 225 14.3
2009-04-21 08:49:10 51°14.743 2°49.867 229.7 3.4 224 14.3
2009-04-21 08:49:15 51°14.74 2°49.862 229.8 3.5 226 14.3
2009-04-21 08:49:21 51°14.736 2°49.855 229.7 3.5 226 14.3
2009-04-21 08:49:26 51°14.733 2°49.85 229.8 3.5 224 14.4
2009-04-21 08:49:30 51°14.73 2°49.845 230 3.5 226 14.4
2009-04-21 08:49:35 51°14.727 2°49.84 229.9 3.5 224 14.4
2009-04-21 08:49:41 51°14.723 2°49.833 229.8 3.5 226 14.4
2009-04-21 08:49:46 51°14.719 2°49.828 229.8 3.5 225 14.3
2009-04-21 08:49:50 51°14.716 2°49.823 229.6 3.6 225 14.4
2009-04-21 08:49:55 51°14.713 2°49.818 229.6 3.6 226 14.4
2009-04-21 08:50:01 51°14.709 2°49.811 229.7 3.6 225 14.3
2009-04-21 08:50:06 51°14.705 2°49.805 229.6 3.6 225 14.3
2009-04-21 08:50:10 51°14.702 2°49.801 229.4 3.6 226 14.3
2009-04-21 08:50:15 51°14.699 2°49.795 229.4 3.6 224 14.3
2009-04-21 08:50:21 51°14.694 2°49.788 229.5 3.6 224 14.3
2009-04-21 08:50:25 51°14.691 2°49.784 229.4 3.6 224 14.3
2009-04-21 08:50:30 51°14.688 2°49.778 228.7 3.6 225 14.3
2009-04-21 08:50:35 51°14.684 2°49.773 228.8 3.6 224 14.3
2009-04-21 08:50:41 51°14.68 2°49.766 229.2 3.6 225 14.2
2009-04-21 08:50:46 51°14.677 2°49.761 228.7 3.6 225 14.3
2009-04-21 08:50:50 51°14.674 2°49.756 228.9 3.6 226 14.3
2009-04-21 08:50:55 51°14.67 2°49.751 229.4 3.6 224 14.4
2009-04-21 08:51:01 51°14.666 2°49.744 229.5 3.6 225 14.3
2009-04-21 08:51:06 51°14.663 2°49.738 229.4 3.6 225 14.3
2009-04-21 08:51:10 51°14.66 2°49.734 229.5 3.6 223 14.3
2009-04-21 08:51:15 51°14.656 2°49.728 229.3 3.5 224 14.3
2009-04-21 08:51:21 51°14.652 2°49.722 228.9 3.5 224 14.2
2009-04-21 08:51:26 51°14.649 2°49.716 228.9 3.5 225 14.2
2009-04-21 08:51:30 51°14.646 2°49.712 229.3 3.5 223 14.2
2009-04-21 08:51:35 51°14.642 2°49.706 229.3 3.6 228 14.3
2009-04-21 08:51:41 51°14.638 2°49.7 229.6 3.5 224 14.3
2009-04-21 08:51:46 51°14.634 2°49.694 229.5 3.6 226 14.3
2009-04-21 08:51:51 51°14.631 2°49.689 229.5 3.5 223 14.3
2009-04-21 08:51:55 51°14.628 2°49.684 229.4 3.6 225 14.4
2009-04-21 08:52:01 51°14.624 2°49.678 229.1 3.6 224 14.3
2009-04-21 08:52:06 51°14.62 2°49.672 229.1 3.6 225 14.3
2009-04-21 08:52:11 51°14.617 2°49.667 229.2 3.6 224 14.3
2009-04-21 08:52:15 51°14.614 2°49.662 229 3.6 223 14.2
2009-04-21 08:52:21 51°14.61 2°49.656 228.7 3.6 226 14.2
2009-04-21 08:52:26 51°14.606 2°49.65 229.2 3.6 223 14.2
2009-04-21 08:52:31 51°14.603 2°49.645 229.3 3.6 226 14.2
2009-04-21 08:52:35 51°14.6 2°49.64 229 3.6 224 14.2
2009-04-21 08:52:41 51°14.596 2°49.634 229.3 3.6 225 14.2
2009-04-21 08:52:46 51°14.592 2°49.628 229.4 3.6 226 14.2
2009-04-21 08:52:51 51°14.589 2°49.622 229.8 3.6 226 14.2
2009-04-21 08:52:55 51°14.586 2°49.618 229.7 3.6 226 14.1
2009-04-21 08:53:01 51°14.582 2°49.611 229.8 3.5 226 14.2
2009-04-21 08:53:06 51°14.578 2°49.605 229.6 3.6 227 14.2
2009-04-21 08:53:11 51°14.575 2°49.6 229.8 3.6 227 14.2
2009-04-21 08:53:15 51°14.572 2°49.595 229.6 3.6 226 14.2
2009-04-21 08:53:21 51°14.568 2°49.588 229.6 3.6 225 14.1
2009-04-21 08:53:25 51°14.565 2°49.584 229.4 3.6 224 14.1
2009-04-21 08:53:30 51°14.562 2°49.578 229.1 3.6 223 14
2009-04-21 08:53:36 51°14.557 2°49.572 228.7 3.6 226 14
2009-04-21 08:53:41 51°14.554 2°49.566 228.5 3.6 225 14
2009-04-21 08:53:46 51°14.55 2°49.561 228.7 3.6 225 14.1
2009-04-21 08:53:50 51°14.547 2°49.556 229.1 3.6 225 14.1
2009-04-21 08:53:55 51°14.544 2°49.551 229.5 3.6 224 14.1
2009-04-21 08:54:01 51°14.54 2°49.544 229.4 3.6 226 14
2009-04-21 08:54:06 51°14.536 2°49.538 229.4 3.6 224 14.1
2009-04-21 08:54:10 51°14.534 2°49.533 229.6 3.6 227 14.1
2009-04-21 08:54:15 51°14.53 2°49.528 229.6 3.6 226 14.1
2009-04-21 08:54:20 51°14.526 2°49.522 229.9 3.6 225 14.1
2009-04-21 08:54:26 51°14.522 2°49.515 229.7 3.6 227 14
2009-04-21 08:54:30 51°14.52 2°49.511 229.4 3.6 225 14.1
2009-04-21 08:54:35 51°14.516 2°49.505 229.3 3.6 225 14.1
2009-04-21 08:54:41 51°14.512 2°49.498 229.1 3.6 225 14.1
2009-04-21 08:54:46 51°14.508 2°49.493 229.2 3.6 225 14
2009-04-21 08:54:50 51°14.505 2°49.488 229 3.6 227 14
2009-04-21 08:54:55 51°14.502 2°49.483 229.1 3.7 224 14.1
2009-04-21 08:55:01 51°14.497 2°49.476 229.2 3.7 226 14
2009-04-21 08:55:06 51°14.494 2°49.47 229 3.7 224 14
2009-04-21 08:55:11 51°14.49 2°49.465 229 3.6 224 14
2009-04-21 08:55:15 51°14.487 2°49.46 229 3.6 223 14
2009-04-21 08:55:21 51°14.483 2°49.454 228.9 3.6 224 14
2009-04-21 08:55:26 51°14.479 2°49.448 228.5 3.6 224 14
2009-04-21 08:55:31 51°14.476 2°49.442 228.6 3.6 225 14.1
2009-04-21 08:55:36 51°14.472 2°49.437 228.9 3.6 223 14
2009-04-21 08:55:41 51°14.469 2°49.431 228.8 3.6 226 14.1
2009-04-21 08:55:46 51°14.465 2°49.426 229.2 3.6 222 14
2009-04-21 08:55:50 51°14.462 2°49.421 229.4 3.6 225 14
2009-04-21 08:55:55 51°14.458 2°49.416 229.4 3.6 224 14
2009-04-21 08:56:01 51°14.454 2°49.409 229.3 3.6 226 13.9
2009-04-21 08:56:06 51°14.451 2°49.403 229.5 3.6 223 13.9
2009-04-21 08:56:10 51°14.448 2°49.399 229.4 3.6 225 14
2009-04-21 08:56:15 51°14.444 2°49.393 229.8 3.6 222 13.9
2009-04-21 08:56:21 51°14.44 2°49.387 229.6 3.6 225 13.9
2009-04-21 08:56:26 51°14.436 2°49.382 229.4 3.6 221 13.9
2009-04-21 08:56:30 51°14.433 2°49.377 229.4 3.6 226 13.9
2009-04-21 08:56:35 51°14.43 2°49.372 229.1 3.6 222 13.9
2009-04-21 08:56:40 51°14.426 2°49.366 229.2 3.6 225 14
2009-04-21 08:56:46 51°14.422 2°49.359 229.4 3.6 223 14
2009-04-21 08:56:50 51°14.419 2°49.355 229.8 3.5 225 13.9
2009-04-21 08:56:55 51°14.415 2°49.349 229.7 3.6 224 13.9
2009-04-21 08:57:00 51°14.412 2°49.344 229.6 3.6 225 13.9
2009-04-21 08:57:05 51°14.408 2°49.339 229.6 3.6 224 13.9
2009-04-21 08:57:10 51°14.405 2°49.333 229.4 3.5 225 13.9
2009-04-21 08:57:15 51°14.401 2°49.328 229.5 3.5 223 13.9
2009-04-21 08:57:21 51°14.397 2°49.321 229.7 3.5 226 13.9
2009-04-21 08:57:25 51°14.394 2°49.317 229.4 3.5 224 13.9
2009-04-21 08:57:30 51°14.391 2°49.311 229.5 3.5 224 13.9
2009-04-21 08:57:35 51°14.387 2°49.306 229.4 3.5 224 13.9
2009-04-21 08:57:41 51°14.383 2°49.3 229.6 3.5 222 13.9
2009-04-21 08:57:45 51°14.38 2°49.295 229.4 3.5 225 13.9
2009-04-21 08:57:50 51°14.377 2°49.29 229.4 3.5 224 13.8
2009-04-21 08:57:55 51°14.373 2°49.285 229.4 3.5 224 13.8
2009-04-21 08:58:01 51°14.369 2°49.279 229.4 3.5 222 13.9
2009-04-21 08:58:05 51°14.367 2°49.275 229.6 3.4 224 13.8
2009-04-21 08:58:10 51°14.363 2°49.27 229.3 3.4 221 13.9
2009-04-21 08:58:15 51°14.359 2°49.264 229.4 3.5 222 13.8
2009-04-21 08:58:21 51°14.355 2°49.258 229.3 3.5 222 13.8
2009-04-21 08:58:26 51°14.352 2°49.253 228.9 3.4 222 13.8
2009-04-21 08:58:30 51°14.349 2°49.249 229.1 3.5 222 13.8
2009-04-21 08:58:35 51°14.346 2°49.244 229.1 3.4 224 13.8
2009-04-21 08:58:41 51°14.341 2°49.238 229.3 3.4 223 13.8
2009-04-21 08:58:46 51°14.338 2°49.232 229.4 3.5 225 13.9
2009-04-21 08:58:50 51°14.335 2°49.228 229.7 3.5 224 13.9
2009-04-21 08:58:55 51°14.332 2°49.223 229.6 3.5 224 13.9
2009-04-21 08:59:01 51°14.328 2°49.216 229.5 3.5 224 13.9
2009-04-21 08:59:06 51°14.324 2°49.211 229.5 3.5 223 13.8
2009-04-21 08:59:11 51°14.321 2°49.206 229.4 3.5 225 13.8
2009-04-21 08:59:15 51°14.318 2°49.201 229.4 3.5 223 13.8
2009-04-21 08:59:20 51°14.314 2°49.196 229.4 3.5 224 13.8
2009-04-21 08:59:26 51°14.31 2°49.19 229.4 3.5 224 13.8
2009-04-21 08:59:31 51°14.307 2°49.185 229.3 3.5 223 13.8
2009-04-21 08:59:35 51°14.304 2°49.18 229.3 3.5 224 13.8
2009-04-21 08:59:41 51°14.3 2°49.174 229.4 3.5 223 13.8
2009-04-21 08:59:46 51°14.296 2°49.169 229.4 3.5 224 13.8
2009-04-21 08:59:51 51°14.293 2°49.164 229.4 3.5 223 13.8
2009-04-21 08:59:56 51°14.289 2°49.158 229.4 3.5 224 13.8
2009-04-21 09:00:01 51°14.286 2°49.153 229.1 3.5 223 13.8
2009-04-21 09:00:06 51°14.282 2°49.148 229.2 3.5 224 13.7
2009-04-21 09:00:11 51°14.279 2°49.143 229.2 3.4 224 13.8
2009-04-21 09:00:16 51°14.275 2°49.137 229.4 3.4 222 13.7
2009-04-21 09:00:21 51°14.272 2°49.132 229.1 3.4 224 13.7
2009-04-21 09:00:26 51°14.268 2°49.127 229 3.5 223 13.7
2009-04-21 09:00:30 51°14.266 2°49.123 229 3.5 224 13.6
2009-04-21 09:00:36 51°14.262 2°49.116 229.2 3.4 223 13.6
2009-04-21 09:00:41 51°14.258 2°49.111 229.1 3.5 224 13.6
2009-04-21 09:00:46 51°14.255 2°49.106 229.2 3.5 222 13.7
2009-04-21 09:00:50 51°14.252 2°49.101 229.1 3.5 224 13.7
2009-04-21 09:00:55 51°14.248 2°49.096 229.1 3.5 223 13.7
2009-04-21 09:01:01 51°14.244 2°49.09 228.7 3.4 224 13.7
2009-04-21 09:01:06 51°14.241 2°49.085 229.3 3.5 224 13.8
2009-04-21 09:01:10 51°14.238 2°49.08 229.3 3.5 225 13.7
2009-04-21 09:01:15 51°14.234 2°49.075 229.4 3.5 225 13.8
2009-04-21 09:01:20 51°14.231 2°49.07 229.9 3.5 223 13.8
2009-04-21 09:01:26 51°14.227 2°49.063 230 3.5 224 13.8
2009-04-21 09:01:30 51°14.224 2°49.059 229.8 3.5 222 13.8
2009-04-21 09:01:35 51°14.22 2°49.053 229.5 3.5 225 13.8
2009-04-21 09:01:41 51°14.216 2°49.048 229.5 3.5 225 13.8
2009-04-21 09:01:46 51°14.212 2°49.043 229.7 3.5 222 13.7
2009-04-21 09:01:50 51°14.21 2°49.038 229.6 3.5 225 13.7
2009-04-21 09:01:55 51°14.206 2°49.033 229.4 3.4 223 13.7
2009-04-21 09:02:01 51°14.202 2°49.026 229.6 3.5 225 13.7
2009-04-21 09:02:05 51°14.199 2°49.022 229.3 3.5 225 13.8
2009-04-21 09:02:11 51°14.195 2°49.016 229.6 3.5 223 13.7
2009-04-21 09:02:15 51°14.193 2°49.011 229.4 3.5 226 13.7
2009-04-21 09:02:21 51°14.188 2°49.005 229.4 3.5 221 13.7
2009-04-21 09:02:26 51°14.185 2°49 229.4 3.5 225 13.7
2009-04-21 09:02:30 51°14.182 2°48.995 229.2 3.5 224 13.7
2009-04-21 09:02:35 51°14.179 2°48.99 229.6 3.5 224 13.8
2009-04-21 09:02:41 51°14.175 2°48.984 229.3 3.5 224 13.7
2009-04-21 09:02:46 51°14.171 2°48.978 229.2 3.5 223 13.7
2009-04-21 09:02:50 51°14.169 2°48.974 229.1 3.5 225 13.7
2009-04-21 09:02:55 51°14.165 2°48.969 229.2 3.5 225 13.7
2009-04-21 09:03:01 51°14.161 2°48.962 229.4 3.5 224 13.7
2009-04-21 09:03:06 51°14.157 2°48.957 229.4 3.5 225 13.8
2009-04-21 09:03:11 51°14.154 2°48.952 229.4 3.5 223 13.7
2009-04-21 09:03:15 51°14.151 2°48.948 229.4 3.5 224 13.7
2009-04-21 09:03:21 51°14.147 2°48.941 229.4 3.4 224 13.7
2009-04-21 09:03:26 51°14.144 2°48.936 229.2 3.4 224 13.8
2009-04-21 09:03:31 51°14.14 2°48.93 229.2 3.5 225 13.7
2009-04-21 09:03:35 51°14.137 2°48.926 229.4 3.5 225 13.7
2009-04-21 09:03:41 51°14.133 2°48.92 229.8 3.5 226 13.7
2009-04-21 09:03:46 51°14.13 2°48.914 230.3 3.5 227 13.6
2009-04-21 09:03:51 51°14.127 2°48.909 230.9 3.5 225 13.7
2009-04-21 09:03:55 51°14.124 2°48.904 231.1 3.4 227 13.7
2009-04-21 09:04:01 51°14.12 2°48.898 231.3 3.4 227 13.7
2009-04-21 09:04:06 51°14.117 2°48.892 231.6 3.4 227 13.7
2009-04-21 09:04:11 51°14.114 2°48.887 232 3.5 226 13.7
2009-04-21 09:04:15 51°14.111 2°48.882 232.5 3.4 230 13.7
2009-04-21 09:04:21 51°14.107 2°48.875 233 3.4 228 13.6
2009-04-21 09:04:25 51°14.105 2°48.871 233.2 3.4 230 13.6
2009-04-21 09:04:31 51°14.102 2°48.864 233.8 3.3 230 13.7
2009-04-21 09:04:36 51°14.099 2°48.858 234.1 3.3 232 13.6
2009-04-21 09:04:41 51°14.096 2°48.852 234.9 3.3 234 13.7
2009-04-21 09:04:46 51°14.093 2°48.847 236.7 3.3 236 13.7
2009-04-21 09:04:51 51°14.091 2°48.84 238.8 3.3 236 13.7
2009-04-21 09:04:56 51°14.088 2°48.834 239.9 3.2 238 13.5
2009-04-21 09:05:01 51°14.086 2°48.828 240.9 3.2 243 13.6
2009-04-21 09:05:06 51°14.084 2°48.821 242.8 3.2 243 13.6
2009-04-21 09:05:10 51°14.082 2°48.816 244.7 3.3 248 13.6
2009-04-21 09:05:16 51°14.08 2°48.808 246.6 3.2 247 13.6
2009-04-21 09:05:21 51°14.079 2°48.801 247.8 3.2 249 13.7
2009-04-21 09:05:26 51°14.077 2°48.795 248.7 3.2 251 13.7
2009-04-21 09:05:30 51°14.076 2°48.789 249.1 3.2 252 13.7
2009-04-21 09:05:35 51°14.075 2°48.782 249.6 3.3 252 13.7
2009-04-21 09:05:41 51°14.073 2°48.774 250.1 3.2 254 13.7
2009-04-21 09:05:46 51°14.072 2°48.767 250.3 3.3 253 13.7
2009-04-21 09:05:50 51°14.071 2°48.762 250.4 3.2 253 13.7
2009-04-21 09:05:55 51°14.07 2°48.755 250.5 3.2 254 13.7
2009-04-21 09:06:00 51°14.069 2°48.748 250.8 3.2 255 13.7
2009-04-21 09:06:06 51°14.068 2°48.74 251.1 3.3 257 13.7
2009-04-21 09:06:10 51°14.067 2°48.734 251.6 3.2 254 13.7
2009-04-21 09:06:15 51°14.066 2°48.727 252.2 3.2 255 13.7
2009-04-21 09:06:21 51°14.064 2°48.719 252.8 3.1 257 13.6
2009-04-21 09:06:26 51°14.064 2°48.712 253.1 3.2 257 13.6
2009-04-21 09:06:30 51°14.063 2°48.707 254.2 3.2 260 13.6
2009-04-21 09:06:35 51°14.062 2°48.7 254.9 3.1 259 13.6
2009-04-21 09:06:41 51°14.061 2°48.692 255.7 3.1 259 13.6
2009-04-21 09:06:46 51°14.061 2°48.685 256.4 3.2 262 13.7
2009-04-21 09:06:50 51°14.06 2°48.679 257.3 3.2 262 13.7
2009-04-21 09:06:55 51°14.06 2°48.672 258.3 3.2 264 13.6
2009-04-21 09:07:01 51°14.059 2°48.664 258.9 3.2 264 13.5
2009-04-21 09:07:05 51°14.059 2°48.658 259.6 3.1 267 13.5
2009-04-21 09:07:10 51°14.059 2°48.651 260.8 3.1 266 13.6
2009-04-21 09:07:15 51°14.058 2°48.645 262.1 3.1 269 13.7
2009-04-21 09:07:21 51°14.058 2°48.636 263.2 3.1 270 13.7
2009-04-21 09:07:26 51°14.059 2°48.629 264.4 3.1 272 13.7
2009-04-21 09:07:30 51°14.059 2°48.624 265.4 3.2 274 13.7
2009-04-21 09:07:35 51°14.059 2°48.617 266.5 3.2 277 13.7
2009-04-21 09:07:41 51°14.06 2°48.608 268.2 3.2 279 13.8
2009-04-21 09:07:46 51°14.061 2°48.601 269.9 3.3 281 13.8
2009-04-21 09:07:50 51°14.061 2°48.596 271.5 3.3 281 13.6
2009-04-21 09:07:55 51°14.062 2°48.589 273 3.3 284 13.6
2009-04-21 09:08:00 51°14.064 2°48.582 274.3 3.3 285 13.5
2009-04-21 09:08:06 51°14.065 2°48.573 275.8 3.3 289 13.7
2009-04-21 09:08:10 51°14.066 2°48.568 277.6 3.2 289 13.7
2009-04-21 09:08:15 51°14.068 2°48.561 278.9 3.2 291 13.8
2009-04-21 09:08:21 51°14.07 2°48.554 280.3 3.1 294 13.8
2009-04-21 09:08:26 51°14.072 2°48.548 281.9 3.1 296 13.9
2009-04-21 09:08:30 51°14.073 2°48.543 283.2 3.1 296 13.8
2009-04-21 09:08:35 51°14.076 2°48.537 284.5 2.9 300 13.8
2009-04-21 09:08:41 51°14.078 2°48.531 285.5 2.8 301 13.8
2009-04-21 09:08:46 51°14.08 2°48.525 286.2 2.7 302 13.7
2009-04-21 09:08:50 51°14.081 2°48.522 287.4 2.5 304 13.7
2009-04-21 09:08:55 51°14.083 2°48.518 288.4 2.4 306 13.8
2009-04-21 09:09:01 51°14.086 2°48.513 289.5 2.3 309 13.8
2009-04-21 09:09:06 51°14.088 2°48.509 290.4 2.1 311 13.8
2009-04-21 09:09:10 51°14.089 2°48.506 291.1 2 311 13.8
2009-04-21 09:09:15 51°14.091 2°48.503 292.3 1.9 310 13.8
2009-04-21 09:09:21 51°14.093 2°48.5 293.1 1.8 315 13.8
2009-04-21 09:09:25 51°14.095 2°48.498 293.9 1.8 320 13.7
2009-04-21 09:09:30 51°14.097 2°48.496 294.6 1.7 319 13.7
2009-04-21 09:09:36 51°14.099 2°48.493 295.3 1.7 324 13.8
2009-04-21 09:09:41 51°14.1 2°48.491 296 1.5 324 13.8
2009-04-21 09:09:46 51°14.102 2°48.489 296.8 1.5 331 13.8
2009-04-21 09:09:50 51°14.104 2°48.488 297.5 1.4 326 13.8
2009-04-21 09:09:55 51°14.105 2°48.487 298 1.4 331 13.9
2009-04-21 09:10:01 51°14.107 2°48.485 298.9 1.2 329 13.8
2009-04-21 09:10:06 51°14.109 2°48.484 299.1 1.2 337 13.8
2009-04-21 09:10:10 51°14.11 2°48.483 298.8 1.1 338 13.8
2009-04-21 09:10:15 51°14.111 2°48.483 298.6 1.1 338 13.8
2009-04-21 09:10:21 51°14.113 2°48.482 298.8 1.1 347 13.7
2009-04-21 09:10:26 51°14.114 2°48.481 298.6 0.9 345 13.7
2009-04-21 09:10:30 51°14.115 2°48.481 298.5 1 351 13.7
2009-04-21 09:10:35 51°14.116 2°48.481 298.5 0.9 354 13.8
2009-04-21 09:10:40 51°14.118 2°48.48 298.4 0.9 355 13.8
2009-04-21 09:10:46 51°14.119 2°48.48 298.6 0.9 354 13.8
2009-04-21 09:10:50 51°14.12 2°48.48 298.8 0.8 356 13.9
2009-04-21 09:10:55 51°14.121 2°48.48 298.8 0.8 353 13.9
2009-04-21 09:11:01 51°14.122 2°48.48 298.8 0.8 -999 13.9
2009-04-21 09:11:05 51°14.123 2°48.48 298.9 0.8 359 13.9
2009-04-21 09:11:10 51°14.124 2°48.48 299.2 0.7 -999 13.9
2009-04-21 09:11:15 51°14.126 2°48.48 299.7 0.8 5 13.9
2009-04-21 09:11:21 51°14.127 2°48.48 300 0.6 2 13.8
2009-04-21 09:11:25 51°14.127 2°48.481 300.5 0.7 10 13.9
2009-04-21 09:11:31 51°14.129 2°48.481 300.6 0.7 7 13.8
2009-04-21 09:11:36 51°14.13 2°48.481 300.6 0.6 11 13.8
2009-04-21 09:11:41 51°14.131 2°48.482 301 0.7 19 13.7
2009-04-21 09:11:46 51°14.131 2°48.482 301 0.6 23 13.6
2009-04-21 09:11:50 51°14.132 2°48.483 301 0.7 22 13.7
2009-04-21 09:11:55 51°14.133 2°48.483 301.2 0.7 17 13.8
2009-04-21 09:12:01 51°14.134 2°48.483 301.6 0.8 12 13.8
2009-04-21 09:12:06 51°14.136 2°48.484 302.7 0.9 6 13.8
2009-04-21 09:12:10 51°14.137 2°48.484 304.4 1 1 13.9
2009-04-21 09:12:15 51°14.138 2°48.483 306.8 1.1 357 13.8
2009-04-21 09:12:21 51°14.14 2°48.483 309.3 1.2 352 13.9
2009-04-21 09:12:26 51°14.142 2°48.483 312.5 1.4 352 13.8
2009-04-21 09:12:30 51°14.144 2°48.482 315.9 1.7 353 13.9
2009-04-21 09:12:34 51°14.146 2°48.481 319.6 1.9 351 13.9
2009-04-21 09:12:40 51°14.149 2°48.481 323.6 2.1 353 13.8
2009-04-21 09:12:46 51°14.153 2°48.48 328.4 2.3 357 13.9
2009-04-21 09:12:51 51°14.157 2°48.48 333.1 2.5 358 13.8
2009-04-21 09:12:55 51°14.16 2°48.48 337.6 2.7 1 13.9
2009-04-21 09:13:00 51°14.163 2°48.48 342.3 3 2 13.8
2009-04-21 09:13:06 51°14.169 2°48.481 346.5 3.5 3 13.8
2009-04-21 09:13:10 51°14.174 2°48.481 349 4.1 1 13.8
2009-04-21 09:13:15 51°14.18 2°48.481 349.1 4.6 1 13.9
2009-04-21 09:13:21 51°14.188 2°48.48 347.7 5 357 13.7
2009-04-21 09:13:26 51°14.196 2°48.48 347 5.4 -999 14
2009-04-21 09:13:30 51°14.202 2°48.481 349.1 5.7 -999 13.8
2009-04-21 09:13:35 51°14.211 2°48.481 351.9 6.1 3 13.7
2009-04-21 09:13:41 51°14.221 2°48.483 355.3 6.4 6 13.9
2009-04-21 09:13:46 51°14.231 2°48.485 357 6.7 6 13.8
2009-04-21 09:13:50 51°14.238 2°48.486 359.5 7.1 8 13.9
2009-04-21 09:13:55 51°14.249 2°48.488 1.2 7.6 8 13.8
2009-04-21 09:14:01 51°14.262 2°48.492 2.4 8 9 13.8
2009-04-21 09:14:06 51°14.273 2°48.495 3.5 8.3 10 13.9
2009-04-21 09:14:10 51°14.282 2°48.498 4.5 8.6 11 13.9
2009-04-21 09:14:16 51°14.297 2°48.503 6.3 9 13 14
2009-04-21 09:14:21 51°14.31 2°48.508 9.1 9.3 15 13.9
2009-04-21 09:14:26 51°14.322 2°48.513 10.3 9.6 15 13.9
2009-04-21 09:14:30 51°14.333 2°48.519 12 9.9 18 13.9
2009-04-21 09:14:34 51°14.343 2°48.524 13.1 10.2 17 14
2009-04-21 09:14:41 51°14.363 2°48.534 14.1 10.6 18 13.9
2009-04-21 09:14:46 51°14.377 2°48.542 15 11 18 14
2009-04-21 09:14:50 51°14.389 2°48.548 15.5 11.4 19 14
2009-04-21 09:14:55 51°14.404 2°48.556 16.1 11.6 19 14
2009-04-21 09:15:01 51°14.423 2°48.567 16.7 11.9 20 14
2009-04-21 09:15:06 51°14.439 2°48.576 17.7 12.1 20 14
2009-04-21 09:15:10 51°14.451 2°48.584 17.7 12.2 21 14.1
2009-04-21 09:15:15 51°14.467 2°48.593 18.6 12.4 21 14.2
2009-04-21 09:15:21 51°14.487 2°48.605 18.8 12.4 21 14.2
2009-04-21 09:15:25 51°14.5 2°48.612 18.2 12.5 20 14.2
2009-04-21 09:15:31 51°14.519 2°48.624 17.7 12.5 20 14.3
2009-04-21 09:15:35 51°14.533 2°48.631 17.7 12.6 20 14.3
2009-04-21 09:15:41 51°14.552 2°48.643 18.2 12.6 21 14.3
2009-04-21 09:15:46 51°14.569 2°48.652 18.5 12.6 20 14.3
2009-04-21 09:15:50 51°14.582 2°48.66 18.8 12.6 21 14.3
2009-04-21 09:15:55 51°14.598 2°48.67 19.4 12.6 21 14.4
2009-04-21 09:16:01 51°14.618 2°48.682 19.7 12.6 20 14.4
2009-04-21 09:16:06 51°14.634 2°48.692 19 12.6 20 14.4
2009-04-21 09:16:10 51°14.647 2°48.7 19 12.7 21 14.4
2009-04-21 09:16:15 51°14.664 2°48.71 19.4 12.7 21 14.4
2009-04-21 09:16:21 51°14.684 2°48.722 19.8 12.7 22 14.4
2009-04-21 09:16:26 51°14.7 2°48.733 20 12.7 22 14.5
2009-04-21 09:16:31 51°14.716 2°48.744 20.4 12.7 22 14.5
2009-04-21 09:16:35 51°14.729 2°48.752 20.4 12.7 22 14.5
2009-04-21 09:16:41 51°14.749 2°48.764 19.9 12.7 21 14.5
2009-04-21 09:16:46 51°14.766 2°48.774 19.5 12.8 21 14.5
2009-04-21 09:16:50 51°14.779 2°48.783 19.3 12.8 21 14.5
2009-04-21 09:16:55 51°14.795 2°48.793 19.7 12.8 21 14.6
2009-04-21 09:17:01 51°14.815 2°48.804 18.3 12.8 19 14.6
2009-04-21 09:17:06 51°14.832 2°48.813 17.6 12.8 19 14.6
2009-04-21 09:17:10 51°14.845 2°48.821 17.2 12.8 19 14.7
2009-04-21 09:17:15 51°14.862 2°48.83 16.6 12.8 18 14.7
2009-04-21 09:17:20 51°14.879 2°48.839 16.1 12.7 18 14.7
2009-04-21 09:17:26 51°14.899 2°48.849 15.3 12.7 17 14.7
2009-04-21 09:17:31 51°14.916 2°48.857 14.6 12.7 17 14.7
2009-04-21 09:17:35 51°14.93 2°48.863 14.1 12.6 16 14.6
2009-04-21 09:17:41 51°14.95 2°48.873 13.5 12.7 16 14.6
2009-04-21 09:17:46 51°14.967 2°48.88 13.5 12.7 16 14.7
2009-04-21 09:17:51 51°14.984 2°48.888 13.6 12.7 16 14.7
2009-04-21 09:17:56 51°15.001 2°48.896 13.9 12.7 17 14.8
2009-04-21 09:18:01 51°15.018 2°48.904 14.6 12.8 17 14.8
2009-04-21 09:18:06 51°15.035 2°48.913 14.7 12.8 18 14.9
2009-04-21 09:18:11 51°15.052 2°48.921 15.4 12.8 18 14.9
2009-04-21 09:18:16 51°15.069 2°48.93 15.8 12.8 18 15
2009-04-21 09:18:21 51°15.086 2°48.939 15.4 12.8 18 15
2009-04-21 09:18:26 51°15.102 2°48.947 15.6 12.8 18 15
2009-04-21 09:18:30 51°15.116 2°48.954 15.7 12.8 18 15
2009-04-21 09:18:36 51°15.136 2°48.964 15.4 12.8 18 15
2009-04-21 09:18:41 51°15.153 2°48.973 15.3 12.8 18 15
2009-04-21 09:18:46 51°15.17 2°48.981 15.7 12.8 18 15
2009-04-21 09:18:50 51°15.183 2°48.988 15.5 12.9 18 15
2009-04-21 09:18:56 51°15.204 2°48.998 15.4 12.9 17 15.1
2009-04-21 09:19:01 51°15.221 2°49.007 15.1 12.9 18 15.1
2009-04-21 09:19:06 51°15.238 2°49.016 15.3 12.9 17 15.1
2009-04-21 09:19:10 51°15.251 2°49.023 15.3 12.9 18 15.1
2009-04-21 09:19:15 51°15.268 2°49.032 15.3 12.9 18 15.1
2009-04-21 09:19:21 51°15.289 2°49.042 15.7 12.9 18 15.3
2009-04-21 09:19:26 51°15.306 2°49.051 15.6 12.9 18 15.2
2009-04-21 09:19:30 51°15.319 2°49.058 15.3 12.9 18 15.2
2009-04-21 09:19:35 51°15.336 2°49.067 15.3 12.9 18 15.2
2009-04-21 09:19:41 51°15.357 2°49.077 15.6 12.9 18 15.2
2009-04-21 09:19:46 51°15.374 2°49.086 15.3 12.9 18 15.2
2009-04-21 09:19:50 51°15.387 2°49.093 15.4 12.9 18 15.2
2009-04-21 09:19:55 51°15.404 2°49.102 15.4 12.9 18 15.1
2009-04-21 09:20:01 51°15.425 2°49.113 15.1 12.9 18 15.1
2009-04-21 09:20:06 51°15.442 2°49.121 15.1 12.8 18 15.1
2009-04-21 09:20:11 51°15.459 2°49.131 15.4 12.9 19 15
2009-04-21 09:20:16 51°15.476 2°49.14 15.6 12.9 18 14.9